Terminal Aerodrome Forecast
Issued by NWS

Home | Current Version | Previous Version | Text Only | Print | Product List | Glossary On
Versions: 1 2 3 4 5 6 7 8 9 10 11 12 13 14 15 16 17 18 19
000
FTUS46 KOTX 011724
TAFCOE
TAF
KCOE 011724Z 0118/0218 23004KT P6SM VCSH SCT030 OVC050
     FM012100 23008G15KT P6SM SCT060 BKN110
     FM020300 22006KT P6SM SCT120
     FM020800 06004KT P6SM FEW120
      AMD LTD TO CLD VIS AND WIND=

USA.gov is the U.S. government's official web portal to all federal, state and local government web resources and services.